Buttonwillow, California
Current Conditions -  °F | °C
As of 4:54 PM on Tuesday 27 Jan 2015 (Local Time) from KBFL Reporting Station
Few Clouds Few Clouds  
Wind Chill: 64°   Ceiling: Unl
Heat Index: 64°   Visibility: 10mi
Dew Point: 48°   Wind: 3mph
Humidity: 56%   Direction: 290°WNW
Pressure: 30.19"   Gusts: NA
Location:  35.4°N, 119.47°W
Report Text: KBFL 280054Z 29003KT 10SM FEW040 18/09 A3019 RMK AO2 SLP220 T01780089
Loading
Personal Weather Stations






























Interactive Weather Map New forecast layout! Learn more

10-Day Weather Forecast

Advertisements
Track Severe Weather on mobile